sensor_id;sensor_type;location;lat;lon;timestamp;P1;durP1;ratioP1;P2;durP2;ratioP2
6693;SDS011;3384;42.628;23.380;2023-03-07T00:00:51;7.17;;;6.47;;
6693;SDS011;3384;42.628;23.380;2023-03-07T00:03:18;10.37;;;9.33;;
6693;SDS011;3384;42.628;23.380;2023-03-07T00:05:45;14.07;;;10.10;;
6693;SDS011;3384;42.628;23.380;2023-03-07T00:08:11;12.40;;;10.67;;
6693;SDS011;3384;42.628;23.380;2023-03-07T00:10:38;22.20;;;9.40;;
6693;SDS011;3384;42.628;23.380;2023-03-07T00:13:04;10.47;;;9.30;;
6693;SDS011;3384;42.628;23.380;2023-03-07T00:15:32;11.57;;;8.60;;
6693;SDS011;3384;42.628;23.380;2023-03-07T00:17:59;10.50;;;8.97;;
6693;SDS011;3384;42.628;23.380;2023-03-07T00:20:25;11.20;;;8.63;;
6693;SDS011;3384;42.628;23.380;2023-03-07T00:22:54;8.13;;;7.20;;
6693;SDS011;3384;42.628;23.380;2023-03-07T00:25:20;11.87;;;7.40;;
6693;SDS011;3384;42.628;23.380;2023-03-07T00:27:49;10.23;;;7.67;;
6693;SDS011;3384;42.628;23.380;2023-03-07T00:30:15;8.07;;;6.93;;
6693;SDS011;3384;42.628;23.380;2023-03-07T00:32:43;7.43;;;6.73;;
6693;SDS011;3384;42.628;23.380;2023-03-07T00:35:10;8.53;;;6.70;;
6693;SDS011;3384;42.628;23.380;2023-03-07T00:37:39;11.03;;;6.83;;
6693;SDS011;3384;42.628;23.380;2023-03-07T00:40:06;7.50;;;6.83;;
6693;SDS011;3384;42.628;23.380;2023-03-07T00:42:33;7.17;;;6.57;;
6693;SDS011;3384;42.628;23.380;2023-03-07T00:45:00;7.67;;;6.90;;
6693;SDS011;3384;42.628;23.380;2023-03-07T00:47:26;7.23;;;6.10;;
6693;SDS011;3384;42.628;23.380;2023-03-07T00:49:54;7.87;;;7.27;;
6693;SDS011;3384;42.628;23.380;2023-03-07T00:52:21;7.67;;;6.90;;
6693;SDS011;3384;42.628;23.380;2023-03-07T00:54:47;9.10;;;6.40;;
6693;SDS011;3384;42.628;23.380;2023-03-07T00:57:14;7.63;;;6.90;;
6693;SDS011;3384;42.628;23.380;2023-03-07T00:59:40;7.73;;;6.63;;
6693;SDS011;3384;42.628;23.380;2023-03-07T01:02:09;8.57;;;6.30;;
6693;SDS011;3384;42.628;23.380;2023-03-07T01:04:37;6.00;;;5.50;;
6693;SDS011;3384;42.628;23.380;2023-03-07T01:07:07;5.87;;;5.37;;
6693;SDS011;3384;42.628;23.380;2023-03-07T01:09:34;5.43;;;4.93;;
6693;SDS011;3384;42.628;23.380;2023-03-07T01:12:05;8.80;;;6.03;;
6693;SDS011;3384;42.628;23.380;2023-03-07T01:14:32;8.93;;;6.07;;
6693;SDS011;3384;42.628;23.380;2023-03-07T01:16:58;7.23;;;6.53;;
6693;SDS011;3384;42.628;23.380;2023-03-07T01:19:25;6.10;;;5.57;;
6693;SDS011;3384;42.628;23.380;2023-03-07T01:21:51;11.60;;;7.50;;
6693;SDS011;3384;42.628;23.380;2023-03-07T01:24:19;6.30;;;5.80;;
6693;SDS011;3384;42.628;23.380;2023-03-07T01:26:45;6.13;;;5.73;;
6693;SDS011;3384;42.628;23.380;2023-03-07T01:29:13;6.07;;;5.63;;
6693;SDS011;3384;42.628;23.380;2023-03-07T01:31:39;6.97;;;6.37;;
6693;SDS011;3384;42.628;23.380;2023-03-07T01:34:06;7.07;;;6.33;;
6693;SDS011;3384;42.628;23.380;2023-03-07T01:36:33;6.60;;;5.87;;
6693;SDS011;3384;42.628;23.380;2023-03-07T01:39:02;6.83;;;6.13;;
6693;SDS011;3384;42.628;23.380;2023-03-07T01:41:39;7.67;;;6.87;;
6693;SDS011;3384;42.628;23.380;2023-03-07T01:44:18;9.73;;;7.00;;
6693;SDS011;3384;42.628;23.380;2023-03-07T01:46:46;7.27;;;6.60;;
6693;SDS011;3384;42.628;23.380;2023-03-07T01:49:15;6.93;;;6.30;;
6693;SDS011;3384;42.628;23.380;2023-03-07T01:51:43;11.67;;;6.10;;
6693;SDS011;3384;42.628;23.380;2023-03-07T01:54:10;8.23;;;6.47;;
6693;SDS011;3384;42.628;23.380;2023-03-07T01:56:39;7.17;;;5.90;;
6693;SDS011;3384;42.628;23.380;2023-03-07T01:59:06;6.63;;;6.03;;
6693;SDS011;3384;42.628;23.380;2023-03-07T02:01:33;5.13;;;4.63;;
6693;SDS011;3384;42.628;23.380;2023-03-07T02:04:00;7.10;;;5.60;;
6693;SDS011;3384;42.628;23.380;2023-03-07T02:06:28;5.90;;;5.60;;
6693;SDS011;3384;42.628;23.380;2023-03-07T02:08:55;7.60;;;6.80;;
6693;SDS011;3384;42.628;23.380;2023-03-07T02:11:22;6.70;;;5.50;;
6693;SDS011;3384;42.628;23.380;2023-03-07T02:13:50;7.40;;;6.70;;
6693;SDS011;3384;42.628;23.380;2023-03-07T02:16:17;7.30;;;6.60;;
6693;SDS011;3384;42.628;23.380;2023-03-07T02:18:44;7.10;;;6.50;;
6693;SDS011;3384;42.628;23.380;2023-03-07T02:21:16;29.80;;;8.30;;
6693;SDS011;3384;42.628;23.380;2023-03-07T02:23:46;6.07;;;5.67;;
6693;SDS011;3384;42.628;23.380;2023-03-07T02:26:15;8.43;;;5.97;;
6693;SDS011;3384;42.628;23.380;2023-03-07T02:28:44;8.17;;;6.80;;
6693;SDS011;3384;42.628;23.380;2023-03-07T02:31:11;7.87;;;6.80;;
6693;SDS011;3384;42.628;23.380;2023-03-07T02:33:38;6.10;;;5.70;;
6693;SDS011;3384;42.628;23.380;2023-03-07T02:36:05;7.47;;;6.67;;
6693;SDS011;3384;42.628;23.380;2023-03-07T02:38:33;7.37;;;6.87;;
6693;SDS011;3384;42.628;23.380;2023-03-07T02:41:02;6.97;;;6.30;;
6693;SDS011;3384;42.628;23.380;2023-03-07T02:43:29;6.00;;;5.50;;
6693;SDS011;3384;42.628;23.380;2023-03-07T02:45:57;7.00;;;5.87;;
6693;SDS011;3384;42.628;23.380;2023-03-07T02:48:23;11.00;;;6.90;;
6693;SDS011;3384;42.628;23.380;2023-03-07T02:50:50;10.47;;;7.20;;
6693;SDS011;3384;42.628;23.380;2023-03-07T02:53:16;7.77;;;6.27;;
6693;SDS011;3384;42.628;23.380;2023-03-07T02:55:43;10.03;;;6.10;;
6693;SDS011;3384;42.628;23.380;2023-03-07T02:58:09;6.43;;;5.87;;
6693;SDS011;3384;42.628;23.380;2023-03-07T03:00:36;6.30;;;5.80;;
6693;SDS011;3384;42.628;23.380;2023-03-07T03:03:04;5.97;;;5.53;;
6693;SDS011;3384;42.628;23.380;2023-03-07T03:05:31;6.73;;;5.50;;
6693;SDS011;3384;42.628;23.380;2023-03-07T03:07:57;5.93;;;5.53;;
6693;SDS011;3384;42.628;23.380;2023-03-07T03:10:24;9.43;;;5.90;;
6693;SDS011;3384;42.628;23.380;2023-03-07T03:12:50;10.30;;;5.23;;
6693;SDS011;3384;42.628;23.380;2023-03-07T03:15:16;6.27;;;5.87;;
6693;SDS011;3384;42.628;23.380;2023-03-07T03:17:43;7.23;;;5.30;;
6693;SDS011;3384;42.628;23.380;2023-03-07T03:20:11;5.93;;;5.33;;
6693;SDS011;3384;42.628;23.380;2023-03-07T03:22:39;13.53;;;6.50;;
6693;SDS011;3384;42.628;23.380;2023-03-07T03:25:06;6.60;;;6.10;;
6693;SDS011;3384;42.628;23.380;2023-03-07T03:27:34;5.50;;;5.20;;
6693;SDS011;3384;42.628;23.380;2023-03-07T03:30:00;5.07;;;4.87;;
6693;SDS011;3384;42.628;23.380;2023-03-07T03:32:27;11.43;;;7.17;;
6693;SDS011;3384;42.628;23.380;2023-03-07T03:34:53;6.07;;;5.63;;
6693;SDS011;3384;42.628;23.380;2023-03-07T03:37:21;8.77;;;6.63;;
6693;SDS011;3384;42.628;23.380;2023-03-07T03:39:48;6.83;;;5.83;;
6693;SDS011;3384;42.628;23.380;2023-03-07T03:42:14;6.07;;;5.67;;
6693;SDS011;3384;42.628;23.380;2023-03-07T03:44:41;5.70;;;5.30;;
6693;SDS011;3384;42.628;23.380;2023-03-07T03:47:07;7.40;;;6.27;;
6693;SDS011;3384;42.628;23.380;2023-03-07T03:49:34;9.90;;;6.10;;
6693;SDS011;3384;42.628;23.380;2023-03-07T03:52:01;12.80;;;6.03;;
6693;SDS011;3384;42.628;23.380;2023-03-07T03:54:28;6.83;;;6.27;;
6693;SDS011;3384;42.628;23.380;2023-03-07T03:56:55;6.13;;;5.47;;
6693;SDS011;3384;42.628;23.380;2023-03-07T03:59:22;6.97;;;6.30;;
6693;SDS011;3384;42.628;23.380;2023-03-07T04:01:48;7.13;;;6.43;;
6693;SDS011;3384;42.628;23.380;2023-03-07T04:04:15;6.53;;;5.90;;
6693;SDS011;3384;42.628;23.380;2023-03-07T04:06:41;7.80;;;6.83;;
6693;SDS011;3384;42.628;23.380;2023-03-07T04:09:08;5.87;;;5.57;;
6693;SDS011;3384;42.628;23.380;2023-03-07T04:11:36;6.60;;;6.00;;
6693;SDS011;3384;42.628;23.380;2023-03-07T04:14:02;8.93;;;5.53;;
6693;SDS011;3384;42.628;23.380;2023-03-07T04:16:29;6.57;;;5.93;;
6693;SDS011;3384;42.628;23.380;2023-03-07T04:18:56;6.17;;;5.60;;
6693;SDS011;3384;42.628;23.380;2023-03-07T04:21:22;6.10;;;5.67;;
6693;SDS011;3384;42.628;23.380;2023-03-07T04:23:49;7.63;;;6.93;;
6693;SDS011;3384;42.628;23.380;2023-03-07T04:26:19;6.50;;;6.10;;
6693;SDS011;3384;42.628;23.380;2023-03-07T04:28:47;8.60;;;6.20;;
6693;SDS011;3384;42.628;23.380;2023-03-07T04:31:15;11.80;;;6.40;;
6693;SDS011;3384;42.628;23.380;2023-03-07T04:33:42;7.70;;;6.67;;
6693;SDS011;3384;42.628;23.380;2023-03-07T04:36:09;6.93;;;6.37;;
6693;SDS011;3384;42.628;23.380;2023-03-07T04:38:35;11.33;;;6.47;;
6693;SDS011;3384;42.628;23.380;2023-03-07T04:41:03;7.53;;;6.90;;
6693;SDS011;3384;42.628;23.380;2023-03-07T04:43:29;12.00;;;7.10;;
6693;SDS011;3384;42.628;23.380;2023-03-07T04:45:58;7.00;;;6.40;;
6693;SDS011;3384;42.628;23.380;2023-03-07T04:48:24;7.50;;;6.70;;
6693;SDS011;3384;42.628;23.380;2023-03-07T04:50:51;13.17;;;7.23;;
6693;SDS011;3384;42.628;23.380;2023-03-07T04:53:17;7.67;;;6.97;;
6693;SDS011;3384;42.628;23.380;2023-03-07T04:55:44;9.43;;;6.87;;
6693;SDS011;3384;42.628;23.380;2023-03-07T04:58:10;10.80;;;6.83;;
6693;SDS011;3384;42.628;23.380;2023-03-07T05:00:38;17.00;;;8.13;;
6693;SDS011;3384;42.628;23.380;2023-03-07T05:03:06;13.10;;;7.37;;
6693;SDS011;3384;42.628;23.380;2023-03-07T05:05:33;8.47;;;7.63;;
6693;SDS011;3384;42.628;23.380;2023-03-07T05:07:59;7.87;;;7.20;;
6693;SDS011;3384;42.628;23.380;2023-03-07T05:10:26;12.77;;;6.50;;
6693;SDS011;3384;42.628;23.380;2023-03-07T05:12:52;7.83;;;7.13;;
6693;SDS011;3384;42.628;23.380;2023-03-07T05:15:19;15.53;;;7.33;;
6693;SDS011;3384;42.628;23.380;2023-03-07T05:17:45;10.73;;;7.97;;
6693;SDS011;3384;42.628;23.380;2023-03-07T05:20:13;11.70;;;7.00;;
6693;SDS011;3384;42.628;23.380;2023-03-07T05:22:40;10.50;;;7.93;;
6693;SDS011;3384;42.628;23.380;2023-03-07T05:25:07;9.27;;;7.33;;
6693;SDS011;3384;42.628;23.380;2023-03-07T05:27:33;8.43;;;7.70;;
6693;SDS011;3384;42.628;23.380;2023-03-07T05:30:00;10.20;;;7.70;;
6693;SDS011;3384;42.628;23.380;2023-03-07T05:32:26;12.63;;;7.70;;
6693;SDS011;3384;42.628;23.380;2023-03-07T05:34:53;17.47;;;9.17;;
6693;SDS011;3384;42.628;23.380;2023-03-07T05:37:21;8.20;;;6.70;;
6693;SDS011;3384;42.628;23.380;2023-03-07T05:39:47;11.20;;;7.03;;
6693;SDS011;3384;42.628;23.380;2023-03-07T05:42:14;14.07;;;8.27;;
6693;SDS011;3384;42.628;23.380;2023-03-07T05:44:40;12.57;;;7.43;;
6693;SDS011;3384;42.628;23.380;2023-03-07T05:47:07;8.07;;;7.30;;
6693;SDS011;3384;42.628;23.380;2023-03-07T05:49:33;10.03;;;7.90;;
6693;SDS011;3384;42.628;23.380;2023-03-07T05:52:00;12.23;;;7.67;;
6693;SDS011;3384;42.628;23.380;2023-03-07T05:54:28;11.70;;;8.10;;
6693;SDS011;3384;42.628;23.380;2023-03-07T05:56:54;17.87;;;8.07;;
6693;SDS011;3384;42.628;23.380;2023-03-07T05:59:21;10.93;;;7.60;;
6693;SDS011;3384;42.628;23.380;2023-03-07T06:01:47;9.20;;;7.60;;
6693;SDS011;3384;42.628;23.380;2023-03-07T06:04:14;22.53;;;9.70;;
6693;SDS011;3384;42.628;23.380;2023-03-07T06:06:40;10.33;;;7.70;;
6693;SDS011;3384;42.628;23.380;2023-03-07T06:09:07;11.50;;;7.80;;
6693;SDS011;3384;42.628;23.380;2023-03-07T06:11:35;9.50;;;8.60;;
6693;SDS011;3384;42.628;23.380;2023-03-07T06:14:01;8.40;;;7.60;;
6693;SDS011;3384;42.628;23.380;2023-03-07T06:16:28;8.07;;;7.27;;
6693;SDS011;3384;42.628;23.380;2023-03-07T06:18:54;7.30;;;6.70;;
6693;SDS011;3384;42.628;23.380;2023-03-07T06:21:21;8.23;;;7.20;;
6693;SDS011;3384;42.628;23.380;2023-03-07T06:23:47;8.33;;;7.53;;
6693;SDS011;3384;42.628;23.380;2023-03-07T06:26:14;7.83;;;7.13;;
6693;SDS011;3384;42.628;23.380;2023-03-07T06:28:42;8.90;;;7.33;;
6693;SDS011;3384;42.628;23.380;2023-03-07T06:31:08;7.60;;;6.90;;
6693;SDS011;3384;42.628;23.380;2023-03-07T06:33:35;11.50;;;7.00;;
6693;SDS011;3384;42.628;23.380;2023-03-07T06:36:03;12.40;;;7.20;;
6693;SDS011;3384;42.628;23.380;2023-03-07T06:38:30;13.90;;;7.33;;
6693;SDS011;3384;42.628;23.380;2023-03-07T06:40:56;7.93;;;7.13;;
6693;SDS011;3384;42.628;23.380;2023-03-07T06:43:23;7.30;;;6.50;;
6693;SDS011;3384;42.628;23.380;2023-03-07T06:45:51;11.00;;;7.13;;
6693;SDS011;3384;42.628;23.380;2023-03-07T06:48:17;11.50;;;6.87;;
6693;SDS011;3384;42.628;23.380;2023-03-07T06:50:44;7.87;;;7.10;;
6693;SDS011;3384;42.628;23.380;2023-03-07T06:53:10;7.63;;;6.93;;
6693;SDS011;3384;42.628;23.380;2023-03-07T06:55:37;8.60;;;7.80;;
6693;SDS011;3384;42.628;23.380;2023-03-07T06:58:03;10.13;;;7.30;;
6693;SDS011;3384;42.628;23.380;2023-03-07T07:00:30;8.60;;;7.80;;
6693;SDS011;3384;42.628;23.380;2023-03-07T07:02:58;7.50;;;6.80;;
6693;SDS011;3384;42.628;23.380;2023-03-07T07:05:24;10.27;;;8.33;;
6693;SDS011;3384;42.628;23.380;2023-03-07T07:07:51;9.13;;;8.23;;
6693;SDS011;3384;42.628;23.380;2023-03-07T07:10:17;11.60;;;7.20;;
6693;SDS011;3384;42.628;23.380;2023-03-07T07:12:44;12.43;;;7.50;;
6693;SDS011;3384;42.628;23.380;2023-03-07T07:15:10;10.70;;;6.93;;
6693;SDS011;3384;42.628;23.380;2023-03-07T07:17:37;7.50;;;6.87;;
6693;SDS011;3384;42.628;23.380;2023-03-07T07:20:06;7.93;;;7.10;;
6693;SDS011;3384;42.628;23.380;2023-03-07T07:22:33;15.00;;;8.10;;
6693;SDS011;3384;42.628;23.380;2023-03-07T07:24:59;7.77;;;7.07;;
6693;SDS011;3384;42.628;23.380;2023-03-07T07:27:26;6.70;;;6.20;;
6693;SDS011;3384;42.628;23.380;2023-03-07T07:29:53;10.00;;;7.07;;
6693;SDS011;3384;42.628;23.380;2023-03-07T07:32:20;6.30;;;5.90;;
6693;SDS011;3384;42.628;23.380;2023-03-07T07:34:46;12.47;;;5.70;;
6693;SDS011;3384;42.628;23.380;2023-03-07T07:37:14;6.30;;;5.70;;
6693;SDS011;3384;42.628;23.380;2023-03-07T07:39:41;6.67;;;6.23;;
6693;SDS011;3384;42.628;23.380;2023-03-07T07:42:08;10.23;;;6.67;;
6693;SDS011;3384;42.628;23.380;2023-03-07T07:44:34;9.30;;;8.60;;
6693;SDS011;3384;42.628;23.380;2023-03-07T07:47:01;6.10;;;5.50;;
6693;SDS011;3384;42.628;23.380;2023-03-07T07:49:27;9.53;;;4.90;;
6693;SDS011;3384;42.628;23.380;2023-03-07T07:51:54;6.53;;;5.93;;
6693;SDS011;3384;42.628;23.380;2023-03-07T07:54:22;18.97;;;5.90;;
6693;SDS011;3384;42.628;23.380;2023-03-07T07:56:48;5.93;;;5.47;;
6693;SDS011;3384;42.628;23.380;2023-03-07T07:59:15;5.07;;;4.60;;
6693;SDS011;3384;42.628;23.380;2023-03-07T08:01:42;6.70;;;5.70;;
6693;SDS011;3384;42.628;23.380;2023-03-07T08:04:08;7.83;;;5.70;;
6693;SDS011;3384;42.628;23.380;2023-03-07T08:06:35;6.17;;;5.03;;
6693;SDS011;3384;42.628;23.380;2023-03-07T08:09:02;7.50;;;6.20;;
6693;SDS011;3384;42.628;23.380;2023-03-07T08:11:30;6.77;;;6.27;;
6693;SDS011;3384;42.628;23.380;2023-03-07T08:13:57;6.00;;;5.60;;
6693;SDS011;3384;42.628;23.380;2023-03-07T08:16:23;6.00;;;5.60;;
6693;SDS011;3384;42.628;23.380;2023-03-07T08:18:51;8.17;;;6.90;;
6693;SDS011;3384;42.628;23.380;2023-03-07T08:21:17;6.57;;;5.87;;
6693;SDS011;3384;42.628;23.380;2023-03-07T08:23:45;9.50;;;6.20;;
6693;SDS011;3384;42.628;23.380;2023-03-07T08:26:11;7.00;;;5.40;;
6693;SDS011;3384;42.628;23.380;2023-03-07T08:28:40;6.70;;;5.50;;
6693;SDS011;3384;42.628;23.380;2023-03-07T08:31:07;6.03;;;5.40;;
6693;SDS011;3384;42.628;23.380;2023-03-07T08:33:34;5.13;;;4.70;;
6693;SDS011;3384;42.628;23.380;2023-03-07T08:36:00;5.93;;;5.50;;
6693;SDS011;3384;42.628;23.380;2023-03-07T08:38:27;7.93;;;5.87;;
6693;SDS011;3384;42.628;23.380;2023-03-07T08:40:53;7.00;;;6.33;;
6693;SDS011;3384;42.628;23.380;2023-03-07T08:43:20;7.00;;;5.60;;
6693;SDS011;3384;42.628;23.380;2023-03-07T08:45:50;7.20;;;5.50;;
6693;SDS011;3384;42.628;23.380;2023-03-07T08:48:16;9.33;;;6.73;;
6693;SDS011;3384;42.628;23.380;2023-03-07T08:50:44;9.17;;;5.73;;
6693;SDS011;3384;42.628;23.380;2023-03-07T08:53:12;6.07;;;5.10;;
6693;SDS011;3384;42.628;23.380;2023-03-07T08:55:38;6.60;;;5.40;;
6693;SDS011;3384;42.628;23.380;2023-03-07T08:58:05;7.67;;;6.47;;
6693;SDS011;3384;42.628;23.380;2023-03-07T09:00:32;14.13;;;7.07;;
6693;SDS011;3384;42.628;23.380;2023-03-07T09:03:00;9.70;;;5.60;;
6693;SDS011;3384;42.628;23.380;2023-03-07T09:05:26;5.13;;;4.73;;
6693;SDS011;3384;42.628;23.380;2023-03-07T09:07:53;5.30;;;4.83;;
6693;SDS011;3384;42.628;23.380;2023-03-07T09:10:22;5.07;;;4.67;;
6693;SDS011;3384;42.628;23.380;2023-03-07T09:12:49;4.67;;;4.40;;
6693;SDS011;3384;42.628;23.380;2023-03-07T09:15:16;14.23;;;5.37;;
6693;SDS011;3384;42.628;23.380;2023-03-07T09:17:42;17.77;;;6.23;;
6693;SDS011;3384;42.628;23.380;2023-03-07T09:20:11;5.17;;;4.77;;
6693;SDS011;3384;42.628;23.380;2023-03-07T09:22:37;5.60;;;5.03;;
6693;SDS011;3384;42.628;23.380;2023-03-07T09:25:04;5.40;;;5.10;;
6693;SDS011;3384;42.628;23.380;2023-03-07T09:27:31;7.63;;;5.30;;
6693;SDS011;3384;42.628;23.380;2023-03-07T09:29:57;5.00;;;4.30;;
6693;SDS011;3384;42.628;23.380;2023-03-07T09:32:24;5.50;;;5.03;;
6693;SDS011;3384;42.628;23.380;2023-03-07T09:34:50;4.10;;;3.67;;
6693;SDS011;3384;42.628;23.380;2023-03-07T09:37:18;11.90;;;4.20;;
6693;SDS011;3384;42.628;23.380;2023-03-07T09:39:47;9.23;;;5.10;;
6693;SDS011;3384;42.628;23.380;2023-03-07T09:42:15;4.00;;;3.70;;
6693;SDS011;3384;42.628;23.380;2023-03-07T09:44:51;5.07;;;4.17;;
6693;SDS011;3384;42.628;23.380;2023-03-07T09:47:25;4.57;;;4.20;;
6693;SDS011;3384;42.628;23.380;2023-03-07T09:50:09;4.60;;;4.20;;
6693;SDS011;3384;42.628;23.380;2023-03-07T09:52:38;3.70;;;3.40;;
6693;SDS011;3384;42.628;23.380;2023-03-07T09:55:08;4.20;;;3.90;;
6693;SDS011;3384;42.628;23.380;2023-03-07T09:57:38;5.53;;;4.27;;
6693;SDS011;3384;42.628;23.380;2023-03-07T10:00:08;5.47;;;4.77;;
6693;SDS011;3384;42.628;23.380;2023-03-07T10:02:44;3.70;;;3.60;;
6693;SDS011;3384;42.628;23.380;2023-03-07T10:05:15;3.70;;;3.50;;
6693;SDS011;3384;42.628;23.380;2023-03-07T10:07:49;2.93;;;2.73;;
6693;SDS011;3384;42.628;23.380;2023-03-07T10:10:18;3.63;;;2.50;;
6693;SDS011;3384;42.628;23.380;2023-03-07T10:12:50;2.30;;;2.20;;
6693;SDS011;3384;42.628;23.380;2023-03-07T10:15:30;2.60;;;2.20;;
6693;SDS011;3384;42.628;23.380;2023-03-07T10:18:04;2.13;;;2.03;;
6693;SDS011;3384;42.628;23.380;2023-03-07T10:20:35;2.57;;;2.30;;
6693;SDS011;3384;42.628;23.380;2023-03-07T10:23:08;3.00;;;2.70;;
6693;SDS011;3384;42.628;23.380;2023-03-07T10:25:44;1.90;;;1.80;;
6693;SDS011;3384;42.628;23.380;2023-03-07T10:28:14;5.27;;;2.10;;
6693;SDS011;3384;42.628;23.380;2023-03-07T10:30:41;2.23;;;2.13;;
6693;SDS011;3384;42.628;23.380;2023-03-07T10:33:11;3.33;;;2.30;;
6693;SDS011;3384;42.628;23.380;2023-03-07T10:35:41;1.83;;;1.73;;
6693;SDS011;3384;42.628;23.380;2023-03-07T10:38:12;5.00;;;2.30;;
6693;SDS011;3384;42.628;23.380;2023-03-07T10:40:42;4.63;;;3.00;;
6693;SDS011;3384;42.628;23.380;2023-03-07T10:43:13;4.53;;;2.77;;
6693;SDS011;3384;42.628;23.380;2023-03-07T10:45:41;3.10;;;3.00;;
6693;SDS011;3384;42.628;23.380;2023-03-07T10:48:08;2.53;;;2.33;;
6693;SDS011;3384;42.628;23.380;2023-03-07T10:50:42;4.13;;;2.67;;
6693;SDS011;3384;42.628;23.380;2023-03-07T10:53:19;2.47;;;2.27;;
6693;SDS011;3384;42.628;23.380;2023-03-07T10:59:00;7.13;;;1.87;;
6693;SDS011;3384;42.628;23.380;2023-03-07T11:01:27;4.40;;;2.40;;
6693;SDS011;3384;42.628;23.380;2023-03-07T11:03:58;2.87;;;2.17;;
6693;SDS011;3384;42.628;23.380;2023-03-07T11:06:30;1.80;;;1.70;;
6693;SDS011;3384;42.628;23.380;2023-03-07T11:09:00;5.40;;;2.53;;
6693;SDS011;3384;42.628;23.380;2023-03-07T11:12:10;2.27;;;2.10;;
6693;SDS011;3384;42.628;23.380;2023-03-07T11:14:44;5.30;;;2.20;;
6693;SDS011;3384;42.628;23.380;2023-03-07T11:23:38;1.90;;;1.50;;
6693;SDS011;3384;42.628;23.380;2023-03-07T11:26:19;2.73;;;1.70;;
6693;SDS011;3384;42.628;23.380;2023-03-07T11:28:46;3.43;;;1.60;;
6693;SDS011;3384;42.628;23.380;2023-03-07T11:31:14;1.80;;;1.67;;
6693;SDS011;3384;42.628;23.380;2023-03-07T11:33:52;1.37;;;1.37;;
6693;SDS011;3384;42.628;23.380;2023-03-07T11:36:22;7.43;;;2.63;;
6693;SDS011;3384;42.628;23.380;2023-03-07T11:38:55;3.00;;;2.80;;
6693;SDS011;3384;42.628;23.380;2023-03-07T11:41:25;2.60;;;2.27;;
6693;SDS011;3384;42.628;23.380;2023-03-07T11:44:01;2.70;;;2.40;;
6693;SDS011;3384;42.628;23.380;2023-03-07T11:46:31;7.27;;;2.03;;
6693;SDS011;3384;42.628;23.380;2023-03-07T11:51:39;1.77;;;1.67;;
6693;SDS011;3384;42.628;23.380;2023-03-07T11:54:12;2.17;;;2.07;;
6693;SDS011;3384;42.628;23.380;2023-03-07T11:56:44;1.77;;;1.67;;
6693;SDS011;3384;42.628;23.380;2023-03-07T12:02:29;2.23;;;1.80;;
6693;SDS011;3384;42.628;23.380;2023-03-07T12:08:20;2.37;;;2.27;;
6693;SDS011;3384;42.628;23.380;2023-03-07T12:14:03;4.70;;;2.70;;
6693;SDS011;3384;42.628;23.380;2023-03-07T12:20:10;2.17;;;1.17;;
6693;SDS011;3384;42.628;23.380;2023-03-07T12:22:45;2.87;;;1.67;;
6693;SDS011;3384;42.628;23.380;2023-03-07T12:25:21;4.40;;;1.30;;
6693;SDS011;3384;42.628;23.380;2023-03-07T12:27:51;1.27;;;1.13;;
6693;SDS011;3384;42.628;23.380;2023-03-07T12:30:21;0.70;;;0.70;;
6693;SDS011;3384;42.628;23.380;2023-03-07T12:32:50;1.20;;;1.10;;
6693;SDS011;3384;42.628;23.380;2023-03-07T12:35:21;1.40;;;1.27;;
6693;SDS011;3384;42.628;23.380;2023-03-07T12:37:50;1.10;;;1.10;;
6693;SDS011;3384;42.628;23.380;2023-03-07T12:40:19;1.50;;;1.40;;
6693;SDS011;3384;42.628;23.380;2023-03-07T12:42:47;0.83;;;0.83;;
6693;SDS011;3384;42.628;23.380;2023-03-07T12:45:16;0.63;;;0.63;;
6693;SDS011;3384;42.628;23.380;2023-03-07T12:47:50;1.00;;;0.80;;
6693;SDS011;3384;42.628;23.380;2023-03-07T12:50:55;0.70;;;0.70;;
6693;SDS011;3384;42.628;23.380;2023-03-07T12:53:26;1.30;;;1.20;;
6693;SDS011;3384;42.628;23.380;2023-03-07T12:55:56;0.77;;;0.77;;
6693;SDS011;3384;42.628;23.380;2023-03-07T12:58:28;1.30;;;1.20;;
6693;SDS011;3384;42.628;23.380;2023-03-07T13:00:58;5.90;;;1.73;;
6693;SDS011;3384;42.628;23.380;2023-03-07T13:03:31;1.20;;;1.10;;
6693;SDS011;3384;42.628;23.380;2023-03-07T13:05:59;7.30;;;1.27;;
6693;SDS011;3384;42.628;23.380;2023-03-07T13:08:26;0.63;;;0.63;;
6693;SDS011;3384;42.628;23.380;2023-03-07T13:10:53;3.50;;;0.70;;
6693;SDS011;3384;42.628;23.380;2023-03-07T13:16:05;1.20;;;1.10;;
6693;SDS011;3384;42.628;23.380;2023-03-07T13:18:33;1.60;;;1.50;;
6693;SDS011;3384;42.628;23.380;2023-03-07T13:23:40;8.00;;;1.30;;
6693;SDS011;3384;42.628;23.380;2023-03-07T13:29:11;1.60;;;1.50;;
6693;SDS011;3384;42.628;23.380;2023-03-07T13:34:45;2.40;;;1.23;;
6693;SDS011;3384;42.628;23.380;2023-03-07T13:40:20;2.40;;;1.50;;
6693;SDS011;3384;42.628;23.380;2023-03-07T13:42:47;1.90;;;1.80;;
6693;SDS011;3384;42.628;23.380;2023-03-07T13:47:59;1.47;;;0.93;;
6693;SDS011;3384;42.628;23.380;2023-03-07T13:50:39;2.80;;;1.60;;
6693;SDS011;3384;42.628;23.380;2023-03-07T13:53:27;6.00;;;1.13;;
6693;SDS011;3384;42.628;23.380;2023-03-07T13:55:59;1.20;;;1.10;;
6693;SDS011;3384;42.628;23.380;2023-03-07T14:01:30;1.50;;;1.40;;
6693;SDS011;3384;42.628;23.380;2023-03-07T14:03:58;5.13;;;1.87;;
6693;SDS011;3384;42.628;23.380;2023-03-07T14:06:32;9.10;;;1.40;;
6693;SDS011;3384;42.628;23.380;2023-03-07T14:08:59;1.20;;;1.10;;
6693;SDS011;3384;42.628;23.380;2023-03-07T14:11:32;1.30;;;1.20;;
6693;SDS011;3384;42.628;23.380;2023-03-07T14:14:06;1.97;;;1.30;;
6693;SDS011;3384;42.628;23.380;2023-03-07T14:17:18;1.63;;;1.03;;
6693;SDS011;3384;42.628;23.380;2023-03-07T14:19:49;3.83;;;1.37;;
6693;SDS011;3384;42.628;23.380;2023-03-07T14:22:21;1.30;;;1.20;;
6693;SDS011;3384;42.628;23.380;2023-03-07T14:24:56;6.10;;;1.40;;
6693;SDS011;3384;42.628;23.380;2023-03-07T14:27:59;1.60;;;1.50;;
6693;SDS011;3384;42.628;23.380;2023-03-07T14:36:51;1.70;;;1.40;;
6693;SDS011;3384;42.628;23.380;2023-03-07T14:39:19;4.03;;;1.87;;
6693;SDS011;3384;42.628;23.380;2023-03-07T14:41:47;1.33;;;1.23;;
6693;SDS011;3384;42.628;23.380;2023-03-07T14:44:23;1.10;;;0.90;;
6693;SDS011;3384;42.628;23.380;2023-03-07T14:47:29;6.03;;;1.50;;
6693;SDS011;3384;42.628;23.380;2023-03-07T14:49:59;2.70;;;1.23;;
6693;SDS011;3384;42.628;23.380;2023-03-07T14:52:30;0.80;;;0.80;;
6693;SDS011;3384;42.628;23.380;2023-03-07T14:54:58;0.67;;;0.67;;
6693;SDS011;3384;42.628;23.380;2023-03-07T14:57:28;1.40;;;0.90;;
6693;SDS011;3384;42.628;23.380;2023-03-07T15:00:03;1.10;;;1.10;;
6693;SDS011;3384;42.628;23.380;2023-03-07T15:02:30;1.30;;;1.30;;
6693;SDS011;3384;42.628;23.380;2023-03-07T15:05:09;0.70;;;0.70;;
6693;SDS011;3384;42.628;23.380;2023-03-07T15:11:22;1.70;;;1.60;;
6693;SDS011;3384;42.628;23.380;2023-03-07T15:13:52;1.77;;;1.57;;
6693;SDS011;3384;42.628;23.380;2023-03-07T15:16:21;1.43;;;1.33;;
6693;SDS011;3384;42.628;23.380;2023-03-07T15:18:48;1.00;;;0.90;;
6693;SDS011;3384;42.628;23.380;2023-03-07T15:21:16;1.33;;;1.10;;
6693;SDS011;3384;42.628;23.380;2023-03-07T15:23:49;1.00;;;1.00;;
6693;SDS011;3384;42.628;23.380;2023-03-07T15:26:16;1.67;;;1.57;;
6693;SDS011;3384;42.628;23.380;2023-03-07T15:28:46;7.33;;;1.87;;
6693;SDS011;3384;42.628;23.380;2023-03-07T15:31:13;4.77;;;1.90;;
6693;SDS011;3384;42.628;23.380;2023-03-07T15:33:40;1.33;;;1.23;;
6693;SDS011;3384;42.628;23.380;2023-03-07T15:36:22;3.80;;;2.17;;
6693;SDS011;3384;42.628;23.380;2023-03-07T15:38:50;2.03;;;1.93;;
6693;SDS011;3384;42.628;23.380;2023-03-07T15:41:23;2.17;;;2.07;;
6693;SDS011;3384;42.628;23.380;2023-03-07T15:44:03;2.33;;;1.60;;
6693;SDS011;3384;42.628;23.380;2023-03-07T15:46:30;1.53;;;1.23;;
6693;SDS011;3384;42.628;23.380;2023-03-07T15:48:56;3.10;;;1.90;;
6693;SDS011;3384;42.628;23.380;2023-03-07T15:51:23;2.70;;;1.53;;
6693;SDS011;3384;42.628;23.380;2023-03-07T15:53:52;3.20;;;1.43;;
6693;SDS011;3384;42.628;23.380;2023-03-07T15:56:20;0.73;;;0.73;;
6693;SDS011;3384;42.628;23.380;2023-03-07T15:58:48;13.80;;;1.30;;
6693;SDS011;3384;42.628;23.380;2023-03-07T16:01:19;1.27;;;1.27;;
6693;SDS011;3384;42.628;23.380;2023-03-07T16:03:47;1.70;;;1.60;;